sensor_id;sensor_type;location;lat;lon;timestamp;temperature;humidity
68450;SHT30;55434;39.570;2.652;2022-12-20T00:00:54;13.25;88.49
68450;SHT30;55434;39.570;2.652;2022-12-20T00:03:20;13.20;88.39
68450;SHT30;55434;39.570;2.652;2022-12-20T00:05:46;13.15;88.87
68450;SHT30;55434;39.570;2.652;2022-12-20T00:08:12;13.13;89.02
68450;SHT30;55434;39.570;2.652;2022-12-20T00:10:43;13.18;88.89
68450;SHT30;55434;39.570;2.652;2022-12-20T00:13:10;13.23;88.74
68450;SHT30;55434;39.570;2.652;2022-12-20T00:15:36;13.31;88.40
68450;SHT30;55434;39.570;2.652;2022-12-20T00:18:02;13.48;88.18
68450;SHT30;55434;39.570;2.652;2022-12-20T00:23:45;13.69;87.78
68450;SHT30;55434;39.570;2.652;2022-12-20T00:26:19;13.79;87.21
68450;SHT30;55434;39.570;2.652;2022-12-20T00:28:45;13.65;87.54
68450;SHT30;55434;39.570;2.652;2022-12-20T00:31:13;13.64;87.75
68450;SHT30;55434;39.570;2.652;2022-12-20T00:33:39;13.65;87.84
68450;SHT30;55434;39.570;2.652;2022-12-20T00:36:06;13.58;88.01
68450;SHT30;55434;39.570;2.652;2022-12-20T00:38:34;13.66;88.08
68450;SHT30;55434;39.570;2.652;2022-12-20T00:41:11;13.59;88.20
68450;SHT30;55434;39.570;2.652;2022-12-20T00:43:38;13.59;88.32
68450;SHT30;55434;39.570;2.652;2022-12-20T00:46:04;13.64;88.26
68450;SHT30;55434;39.570;2.652;2022-12-20T00:48:31;13.74;88.05
68450;SHT30;55434;39.570;2.652;2022-12-20T00:50:58;13.86;87.66
68450;SHT30;55434;39.570;2.652;2022-12-20T00:53:24;13.89;87.49
68450;SHT30;55434;39.570;2.652;2022-12-20T00:55:50;13.87;87.51
68450;SHT30;55434;39.570;2.652;2022-12-20T00:58:16;13.86;87.71
68450;SHT30;55434;39.570;2.652;2022-12-20T01:00:42;13.89;87.58
68450;SHT30;55434;39.570;2.652;2022-12-20T01:03:08;13.86;87.86
68450;SHT30;55434;39.570;2.652;2022-12-20T01:05:33;13.82;87.90
68450;SHT30;55434;39.570;2.652;2022-12-20T01:07:59;13.83;88.11
68450;SHT30;55434;39.570;2.652;2022-12-20T01:10:25;13.87;87.79
68450;SHT30;55434;39.570;2.652;2022-12-20T01:13:03;13.93;87.60
68450;SHT30;55434;39.570;2.652;2022-12-20T01:15:32;13.89;87.79
68450;SHT30;55434;39.570;2.652;2022-12-20T01:17:58;13.87;87.71
68450;SHT30;55434;39.570;2.652;2022-12-20T01:20:24;13.90;87.52
68450;SHT30;55434;39.570;2.652;2022-12-20T01:22:49;13.92;87.57
68450;SHT30;55434;39.570;2.652;2022-12-20T01:25:15;13.85;87.78
68450;SHT30;55434;39.570;2.652;2022-12-20T01:27:41;13.76;87.95
68450;SHT30;55434;39.570;2.652;2022-12-20T01:30:07;13.83;87.84
68450;SHT30;55434;39.570;2.652;2022-12-20T01:32:33;13.83;87.76
68450;SHT30;55434;39.570;2.652;2022-12-20T01:34:58;13.85;87.76
68450;SHT30;55434;39.570;2.652;2022-12-20T01:37:24;13.81;87.95
68450;SHT30;55434;39.570;2.652;2022-12-20T01:39:50;13.75;88.14
68450;SHT30;55434;39.570;2.652;2022-12-20T01:42:15;13.78;88.03
68450;SHT30;55434;39.570;2.652;2022-12-20T01:47:07;13.75;88.07
68450;SHT30;55434;39.570;2.652;2022-12-20T01:49:41;13.75;87.97
68450;SHT30;55434;39.570;2.652;2022-12-20T01:52:13;13.81;88.05
68450;SHT30;55434;39.570;2.652;2022-12-20T01:54:49;13.82;87.60
68450;SHT30;55434;39.570;2.652;2022-12-20T01:57:39;13.86;87.66
68450;SHT30;55434;39.570;2.652;2022-12-20T02:00:06;13.82;87.89
68450;SHT30;55434;39.570;2.652;2022-12-20T02:02:33;13.82;87.93
68450;SHT30;55434;39.570;2.652;2022-12-20T02:05:00;13.82;88.00
68450;SHT30;55434;39.570;2.652;2022-12-20T02:07:28;13.85;88.14
68450;SHT30;55434;39.570;2.652;2022-12-20T02:09:55;13.58;89.19
68450;SHT30;55434;39.570;2.652;2022-12-20T02:12:33;13.47;89.80
68450;SHT30;55434;39.570;2.652;2022-12-20T02:31:10;13.40;90.50
68450;SHT30;55434;39.570;2.652;2022-12-20T02:33:39;13.35;90.73
68450;SHT30;55434;39.570;2.652;2022-12-20T02:36:06;13.35;90.87
68450;SHT30;55434;39.570;2.652;2022-12-20T02:38:35;13.37;90.85
68450;SHT30;55434;39.570;2.652;2022-12-20T02:41:09;13.68;89.63
68450;SHT30;55434;39.570;2.652;2022-12-20T02:43:36;13.75;89.31
68450;SHT30;55434;39.570;2.652;2022-12-20T02:46:23;13.79;89.03
68450;SHT30;55434;39.570;2.652;2022-12-20T02:48:51;13.75;89.26
68450;SHT30;55434;39.570;2.652;2022-12-20T02:51:19;13.72;89.33
68450;SHT30;55434;39.570;2.652;2022-12-20T02:53:47;13.78;89.27
68450;SHT30;55434;39.570;2.652;2022-12-20T02:56:17;13.75;89.29
68450;SHT30;55434;39.570;2.652;2022-12-20T02:58:54;13.69;89.32
68450;SHT30;55434;39.570;2.652;2022-12-20T03:01:30;13.66;89.55
68450;SHT30;55434;39.570;2.652;2022-12-20T03:03:58;13.62;89.94
68450;SHT30;55434;39.570;2.652;2022-12-20T03:06:25;13.65;89.79
68450;SHT30;55434;39.570;2.652;2022-12-20T03:08:55;13.64;89.99
68450;SHT30;55434;39.570;2.652;2022-12-20T03:11:21;13.59;90.01
68450;SHT30;55434;39.570;2.652;2022-12-20T03:13:47;13.64;89.95
68450;SHT30;55434;39.570;2.652;2022-12-20T03:16:12;13.61;90.06
68450;SHT30;55434;39.570;2.652;2022-12-20T03:18:38;13.65;89.90
68450;SHT30;55434;39.570;2.652;2022-12-20T03:21:04;13.65;89.88
68450;SHT30;55434;39.570;2.652;2022-12-20T03:23:31;13.64;89.92
68450;SHT30;55434;39.570;2.652;2022-12-20T03:25:57;13.59;89.91
68450;SHT30;55434;39.570;2.652;2022-12-20T03:28:22;13.59;89.99
68450;SHT30;55434;39.570;2.652;2022-12-20T03:30:48;13.55;90.08
68450;SHT30;55434;39.570;2.652;2022-12-20T03:33:14;13.57;90.06
68450;SHT30;55434;39.570;2.652;2022-12-20T03:35:40;13.52;90.21
68450;SHT30;55434;39.570;2.652;2022-12-20T03:38:06;13.52;90.35
68450;SHT30;55434;39.570;2.652;2022-12-20T03:40:32;13.51;90.31
68450;SHT30;55434;39.570;2.652;2022-12-20T03:42:57;13.52;90.35
68450;SHT30;55434;39.570;2.652;2022-12-20T03:45:23;13.51;90.30
68450;SHT30;55434;39.570;2.652;2022-12-20T03:47:49;13.50;90.27
68450;SHT30;55434;39.570;2.652;2022-12-20T03:50:15;13.47;90.47
68450;SHT30;55434;39.570;2.652;2022-12-20T03:52:40;13.48;90.46
68450;SHT30;55434;39.570;2.652;2022-12-20T03:55:07;13.50;90.51
68450;SHT30;55434;39.570;2.652;2022-12-20T03:57:34;13.45;90.63
68450;SHT30;55434;39.570;2.652;2022-12-20T03:59:59;13.44;90.67
68450;SHT30;55434;39.570;2.652;2022-12-20T04:02:26;13.45;90.76
68450;SHT30;55434;39.570;2.652;2022-12-20T04:04:52;13.45;90.77
68450;SHT30;55434;39.570;2.652;2022-12-20T04:07:18;13.40;90.85
68450;SHT30;55434;39.570;2.652;2022-12-20T04:09:44;13.41;90.81
68450;SHT30;55434;39.570;2.652;2022-12-20T04:12:09;13.17;91.71
68450;SHT30;55434;39.570;2.652;2022-12-20T04:14:35;13.07;92.17
68450;SHT30;55434;39.570;2.652;2022-12-20T04:17:02;12.97;92.39
68450;SHT30;55434;39.570;2.652;2022-12-20T04:19:27;12.93;92.50
68450;SHT30;55434;39.570;2.652;2022-12-20T04:21:53;12.91;92.78
68450;SHT30;55434;39.570;2.652;2022-12-20T04:24:20;12.93;92.83
68450;SHT30;55434;39.570;2.652;2022-12-20T04:26:46;12.91;92.78
68450;SHT30;55434;39.570;2.652;2022-12-20T04:29:13;12.90;92.83
68450;SHT30;55434;39.570;2.652;2022-12-20T04:31:39;12.91;92.93
68450;SHT30;55434;39.570;2.652;2022-12-20T04:34:05;12.89;92.93
68450;SHT30;55434;39.570;2.652;2022-12-20T04:36:30;12.90;92.88
68450;SHT30;55434;39.570;2.652;2022-12-20T04:38:56;12.84;92.92
68450;SHT30;55434;39.570;2.652;2022-12-20T04:41:22;12.84;92.78
68450;SHT30;55434;39.570;2.652;2022-12-20T04:43:52;12.81;92.89
68450;SHT30;55434;39.570;2.652;2022-12-20T04:46:19;12.80;92.95
68450;SHT30;55434;39.570;2.652;2022-12-20T04:48:45;12.75;93.00
68450;SHT30;55434;39.570;2.652;2022-12-20T04:51:11;12.73;93.05
68450;SHT30;55434;39.570;2.652;2022-12-20T04:53:37;12.70;93.28
68450;SHT30;55434;39.570;2.652;2022-12-20T04:56:24;12.69;93.50
68450;SHT30;55434;39.570;2.652;2022-12-20T04:58:53;12.66;93.54
68450;SHT30;55434;39.570;2.652;2022-12-20T05:01:20;12.70;93.61
68450;SHT30;55434;39.570;2.652;2022-12-20T05:03:46;12.67;93.75
68450;SHT30;55434;39.570;2.652;2022-12-20T05:06:13;12.67;93.67
68450;SHT30;55434;39.570;2.652;2022-12-20T05:08:39;12.69;93.67
68450;SHT30;55434;39.570;2.652;2022-12-20T05:11:05;12.73;93.51
68450;SHT30;55434;39.570;2.652;2022-12-20T05:13:31;12.70;93.48
68450;SHT30;55434;39.570;2.652;2022-12-20T05:16:02;12.67;93.52
68450;SHT30;55434;39.570;2.652;2022-12-20T05:18:29;12.66;93.40
68450;SHT30;55434;39.570;2.652;2022-12-20T05:20:57;12.66;93.33
68450;SHT30;55434;39.570;2.652;2022-12-20T05:23:41;12.62;93.43
68450;SHT30;55434;39.570;2.652;2022-12-20T05:26:29;12.57;93.39
68450;SHT30;55434;39.570;2.652;2022-12-20T05:28:55;12.55;93.30
68450;SHT30;55434;39.570;2.652;2022-12-20T05:31:21;12.52;93.38
68450;SHT30;55434;39.570;2.652;2022-12-20T05:33:47;12.50;93.31
68450;SHT30;55434;39.570;2.652;2022-12-20T05:36:12;12.50;93.51
68450;SHT30;55434;39.570;2.652;2022-12-20T05:38:38;12.46;93.38
68450;SHT30;55434;39.570;2.652;2022-12-20T05:41:04;12.45;93.44
68450;SHT30;55434;39.570;2.652;2022-12-20T05:43:31;12.46;93.61
68450;SHT30;55434;39.570;2.652;2022-12-20T05:45:57;12.52;93.41
68450;SHT30;55434;39.570;2.652;2022-12-20T05:48:22;12.52;93.29
68450;SHT30;55434;39.570;2.652;2022-12-20T05:50:48;12.49;93.37
68450;SHT30;55434;39.570;2.652;2022-12-20T05:53:15;12.48;93.37
68450;SHT30;55434;39.570;2.652;2022-12-20T05:55:43;12.46;93.43
68450;SHT30;55434;39.570;2.652;2022-12-20T05:58:09;12.52;93.49
68450;SHT30;55434;39.570;2.652;2022-12-20T06:00:41;12.53;93.33
68450;SHT30;55434;39.570;2.652;2022-12-20T06:03:11;12.52;93.20
68450;SHT30;55434;39.570;2.652;2022-12-20T06:05:40;12.53;93.22
68450;SHT30;55434;39.570;2.652;2022-12-20T06:08:07;12.57;93.17
68450;SHT30;55434;39.570;2.652;2022-12-20T06:10:33;12.66;93.03
68450;SHT30;55434;39.570;2.652;2022-12-20T06:13:00;12.63;92.77
68450;SHT30;55434;39.570;2.652;2022-12-20T06:15:26;12.59;92.61
68450;SHT30;55434;39.570;2.652;2022-12-20T06:17:52;12.55;92.48
68450;SHT30;55434;39.570;2.652;2022-12-20T06:20:18;12.50;92.56
68450;SHT30;55434;39.570;2.652;2022-12-20T06:22:44;12.43;92.77
68450;SHT30;55434;39.570;2.652;2022-12-20T06:25:10;12.38;92.91
68450;SHT30;55434;39.570;2.652;2022-12-20T06:27:37;12.46;92.98
68450;SHT30;55434;39.570;2.652;2022-12-20T06:30:04;12.43;92.77
68450;SHT30;55434;39.570;2.652;2022-12-20T06:32:30;12.35;92.70
68450;SHT30;55434;39.570;2.652;2022-12-20T06:34:56;12.29;92.80
68450;SHT30;55434;39.570;2.652;2022-12-20T06:37:21;12.22;93.05
68450;SHT30;55434;39.570;2.652;2022-12-20T06:39:47;12.17;93.24
68450;SHT30;55434;39.570;2.652;2022-12-20T06:42:13;12.15;93.32
68450;SHT30;55434;39.570;2.652;2022-12-20T06:44:38;12.14;93.28
68450;SHT30;55434;39.570;2.652;2022-12-20T06:47:04;12.05;93.30
68450;SHT30;55434;39.570;2.652;2022-12-20T06:49:30;12.01;93.51
68450;SHT30;55434;39.570;2.652;2022-12-20T06:51:55;11.99;93.48
68450;SHT30;55434;39.570;2.652;2022-12-20T06:54:21;11.98;93.58
68450;SHT30;55434;39.570;2.652;2022-12-20T06:56:47;12.04;93.44
68450;SHT30;55434;39.570;2.652;2022-12-20T06:59:12;12.05;93.51
68450;SHT30;55434;39.570;2.652;2022-12-20T07:01:38;12.06;93.31
68450;SHT30;55434;39.570;2.652;2022-12-20T07:04:04;12.12;93.02
68450;SHT30;55434;39.570;2.652;2022-12-20T07:06:29;12.11;93.02
68450;SHT30;55434;39.570;2.652;2022-12-20T07:08:58;12.02;92.91
68450;SHT30;55434;39.570;2.652;2022-12-20T07:11:24;12.01;92.82
68450;SHT30;55434;39.570;2.652;2022-12-20T07:13:56;11.94;92.88
68450;SHT30;55434;39.570;2.652;2022-12-20T07:16:23;11.94;92.90
68450;SHT30;55434;39.570;2.652;2022-12-20T07:18:50;11.94;92.90
68450;SHT30;55434;39.570;2.652;2022-12-20T07:21:17;12.01;92.83
68450;SHT30;55434;39.570;2.652;2022-12-20T07:23:45;12.01;92.78
68450;SHT30;55434;39.570;2.652;2022-12-20T07:26:12;12.09;92.65
68450;SHT30;55434;39.570;2.652;2022-12-20T07:28:38;12.40;91.34
68450;SHT30;55434;39.570;2.652;2022-12-20T07:31:04;12.43;91.02
68450;SHT30;55434;39.570;2.652;2022-12-20T07:33:31;12.49;90.71
68450;SHT30;55434;39.570;2.652;2022-12-20T07:36:02;12.56;90.57
68450;SHT30;55434;39.570;2.652;2022-12-20T07:38:29;12.60;90.27
68450;SHT30;55434;39.570;2.652;2022-12-20T07:40:55;12.60;90.22
68450;SHT30;55434;39.570;2.652;2022-12-20T07:43:21;12.67;90.31
68450;SHT30;55434;39.570;2.652;2022-12-20T07:45:52;12.76;89.77
68450;SHT30;55434;39.570;2.652;2022-12-20T07:48:18;12.84;89.54
68450;SHT30;55434;39.570;2.652;2022-12-20T07:50:44;12.87;89.52
68450;SHT30;55434;39.570;2.652;2022-12-20T07:53:10;12.96;89.23
68450;SHT30;55434;39.570;2.652;2022-12-20T07:55:36;12.99;88.72
68450;SHT30;55434;39.570;2.652;2022-12-20T07:58:05;12.87;89.11
68450;SHT30;55434;39.570;2.652;2022-12-20T08:00:33;12.84;89.56
68450;SHT30;55434;39.570;2.652;2022-12-20T08:03:15;12.91;89.53
68450;SHT30;55434;39.570;2.652;2022-12-20T08:05:46;12.96;89.28
68450;SHT30;55434;39.570;2.652;2022-12-20T08:08:12;12.96;88.90
68450;SHT30;55434;39.570;2.652;2022-12-20T08:10:39;13.06;88.62
68450;SHT30;55434;39.570;2.652;2022-12-20T08:13:06;13.20;88.22
68450;SHT30;55434;39.570;2.652;2022-12-20T08:15:33;13.28;87.80
68450;SHT30;55434;39.570;2.652;2022-12-20T08:17:59;13.37;87.66
68450;SHT30;55434;39.570;2.652;2022-12-20T08:20:25;13.45;87.44
68450;SHT30;55434;39.570;2.652;2022-12-20T08:22:53;13.51;87.25
68450;SHT30;55434;39.570;2.652;2022-12-20T08:25:18;13.58;87.00
68450;SHT30;55434;39.570;2.652;2022-12-20T08:27:46;13.59;86.67
68450;SHT30;55434;39.570;2.652;2022-12-20T08:30:12;13.64;86.48
68450;SHT30;55434;39.570;2.652;2022-12-20T08:32:38;13.62;86.84
68450;SHT30;55434;39.570;2.652;2022-12-20T08:35:04;13.65;86.88
68450;SHT30;55434;39.570;2.652;2022-12-20T08:37:30;13.68;86.78
68450;SHT30;55434;39.570;2.652;2022-12-20T08:39:56;13.74;86.91
68450;SHT30;55434;39.570;2.652;2022-12-20T08:42:22;13.75;86.45
68450;SHT30;55434;39.570;2.652;2022-12-20T08:44:47;13.82;86.37
68450;SHT30;55434;39.570;2.652;2022-12-20T08:47:17;13.90;86.12
68450;SHT30;55434;39.570;2.652;2022-12-20T08:49:45;13.98;85.69
68450;SHT30;55434;39.570;2.652;2022-12-20T08:52:13;14.06;85.48
68450;SHT30;55434;39.570;2.652;2022-12-20T08:54:41;14.16;85.15
68450;SHT30;55434;39.570;2.652;2022-12-20T08:57:09;14.23;84.91
68450;SHT30;55434;39.570;2.652;2022-12-20T08:59:34;14.25;84.67
68450;SHT30;55434;39.570;2.652;2022-12-20T09:02:01;14.32;84.44
68450;SHT30;55434;39.570;2.652;2022-12-20T09:04:27;14.37;84.48
68450;SHT30;55434;39.570;2.652;2022-12-20T09:06:53;14.44;84.28
68450;SHT30;55434;39.570;2.652;2022-12-20T09:09:27;14.54;84.01
68450;SHT30;55434;39.570;2.652;2022-12-20T09:11:54;14.61;83.72
68450;SHT30;55434;39.570;2.652;2022-12-20T09:14:23;14.67;83.62
68450;SHT30;55434;39.570;2.652;2022-12-20T09:17:11;14.76;83.51
68450;SHT30;55434;39.570;2.652;2022-12-20T09:19:37;14.85;83.39
68450;SHT30;55434;39.570;2.652;2022-12-20T09:22:05;14.94;83.35
68450;SHT30;55434;39.570;2.652;2022-12-20T09:24:36;15.08;82.97
68450;SHT30;55434;39.570;2.652;2022-12-20T09:27:02;15.17;82.83
68450;SHT30;55434;39.570;2.652;2022-12-20T09:29:29;15.28;82.64
68450;SHT30;55434;39.570;2.652;2022-12-20T09:31:58;15.40;82.59
68450;SHT30;55434;39.570;2.652;2022-12-20T09:34:24;15.56;82.08
68450;SHT30;55434;39.570;2.652;2022-12-20T09:36:55;15.73;81.61
68450;SHT30;55434;39.570;2.652;2022-12-20T09:39:27;15.80;81.33
68450;SHT30;55434;39.570;2.652;2022-12-20T09:41:57;15.89;81.23
68450;SHT30;55434;39.570;2.652;2022-12-20T09:44:33;16.01;80.89
68450;SHT30;55434;39.570;2.652;2022-12-20T09:47:06;16.10;80.64
68450;SHT30;55434;39.570;2.652;2022-12-20T09:49:37;16.17;80.95
68450;SHT30;55434;39.570;2.652;2022-12-20T10:00:16;16.57;80.76
68450;SHT30;55434;39.570;2.652;2022-12-20T10:02:47;16.68;80.25
68450;SHT30;55434;39.570;2.652;2022-12-20T10:05:14;16.82;80.18
68450;SHT30;55434;39.570;2.652;2022-12-20T10:07:53;16.93;80.43
68450;SHT30;55434;39.570;2.652;2022-12-20T10:13:11;16.91;81.03
68450;SHT30;55434;39.570;2.652;2022-12-20T10:15:59;16.95;81.07
68450;SHT30;55434;39.570;2.652;2022-12-20T10:24:47;17.42;80.68
68450;SHT30;55434;39.570;2.652;2022-12-20T10:26:49;18.21;78.20
68450;SHT30;55434;39.570;2.652;2022-12-20T10:29:19;18.93;76.36
68450;SHT30;55434;39.570;2.652;2022-12-20T10:31:49;20.16;73.10
68450;SHT30;55434;39.570;2.652;2022-12-20T10:34:19;21.14;70.08
68450;SHT30;55434;39.570;2.652;2022-12-20T10:37:11;22.14;67.33
68450;SHT30;55434;39.570;2.652;2022-12-20T10:39:48;22.20;66.28
68450;SHT30;55434;39.570;2.652;2022-12-20T10:42:39;22.12;66.76
68450;SHT30;55434;39.570;2.652;2022-12-20T10:47:45;22.21;66.94
68450;SHT30;55434;39.570;2.652;2022-12-20T10:50:20;22.83;65.49
68450;SHT30;55434;39.570;2.652;2022-12-20T10:55:41;23.52;63.47
68450;SHT30;55434;39.570;2.652;2022-12-20T11:00:45;24.14;62.22
68450;SHT30;55434;39.570;2.652;2022-12-20T11:03:21;24.08;62.53
68450;SHT30;55434;39.570;2.652;2022-12-20T11:06:00;23.92;63.03
68450;SHT30;55434;39.570;2.652;2022-12-20T11:08:30;24.40;61.72
68450;SHT30;55434;39.570;2.652;2022-12-20T11:13:41;24.73;60.69
68450;SHT30;55434;39.570;2.652;2022-12-20T11:16:28;24.99;60.13
68450;SHT30;55434;39.570;2.652;2022-12-20T11:19:19;25.10;59.63
68450;SHT30;55434;39.570;2.652;2022-12-20T11:27:52;24.31;61.97
68450;SHT30;55434;39.570;2.652;2022-12-20T11:30:46;24.27;62.31
68450;SHT30;55434;39.570;2.652;2022-12-20T11:36:47;24.55;61.54
68450;SHT30;55434;39.570;2.652;2022-12-20T11:39:43;24.71;61.56
68450;SHT30;55434;39.570;2.652;2022-12-20T11:42:15;24.75;61.13
68450;SHT30;55434;39.570;2.652;2022-12-20T11:52:53;25.51;59.16
68450;SHT30;55434;39.570;2.652;2022-12-20T11:55:27;25.46;59.38
68450;SHT30;55434;39.570;2.652;2022-12-20T11:58:04;25.22;60.01
68450;SHT30;55434;39.570;2.652;2022-12-20T12:00:34;24.76;61.13
68450;SHT30;55434;39.570;2.652;2022-12-20T12:03:13;24.92;61.25
68450;SHT30;55434;39.570;2.652;2022-12-20T12:05:47;25.02;60.94
68450;SHT30;55434;39.570;2.652;2022-12-20T12:08:20;24.58;61.94
68450;SHT30;55434;39.570;2.652;2022-12-20T12:10:57;24.69;61.74
68450;SHT30;55434;39.570;2.652;2022-12-20T12:13:27;24.78;61.56
68450;SHT30;55434;39.570;2.652;2022-12-20T12:18:27;24.52;61.94
68450;SHT30;55434;39.570;2.652;2022-12-20T12:21:01;24.08;63.08
68450;SHT30;55434;39.570;2.652;2022-12-20T12:23:46;23.35;65.45
68450;SHT30;55434;39.570;2.652;2022-12-20T12:28:41;23.55;64.73
68450;SHT30;55434;39.570;2.652;2022-12-20T12:31:22;23.35;65.47
68450;SHT30;55434;39.570;2.652;2022-12-20T12:34:05;23.53;65.11
68450;SHT30;55434;39.570;2.652;2022-12-20T12:45:57;22.79;67.68
68450;SHT30;55434;39.570;2.652;2022-12-20T12:48:35;22.72;67.38
68450;SHT30;55434;39.570;2.652;2022-12-20T12:51:06;22.84;67.55
68450;SHT30;55434;39.570;2.652;2022-12-20T12:53:34;22.84;67.17
68450;SHT30;55434;39.570;2.652;2022-12-20T13:02:33;21.59;70.86
68450;SHT30;55434;39.570;2.652;2022-12-20T13:20:26;20.23;76.10
68450;SHT30;55434;39.570;2.652;2022-12-20T13:23:14;20.19;75.93
68450;SHT30;55434;39.570;2.652;2022-12-20T13:25:50;20.29;76.26
68450;SHT30;55434;39.570;2.652;2022-12-20T13:33:41;19.67;77.90
68450;SHT30;55434;39.570;2.652;2022-12-20T13:44:39;19.67;78.67
68450;SHT30;55434;39.570;2.652;2022-12-20T13:49:50;19.30;80.36
68450;SHT30;55434;39.570;2.652;2022-12-20T13:52:23;19.34;80.23
68450;SHT30;55434;39.570;2.652;2022-12-20T13:54:54;19.28;80.31
68450;SHT30;55434;39.570;2.652;2022-12-20T13:59:54;19.07;80.97
68450;SHT30;55434;39.570;2.652;2022-12-20T14:02:35;19.17;80.92
68450;SHT30;55434;39.570;2.652;2022-12-20T14:05:16;19.16;80.69
68450;SHT30;55434;39.570;2.652;2022-12-20T14:07:47;19.06;81.11
68450;SHT30;55434;39.570;2.652;2022-12-20T14:10:22;19.08;81.42
68450;SHT30;55434;39.570;2.652;2022-12-20T14:12:50;19.14;81.18
68450;SHT30;55434;39.570;2.652;2022-12-20T14:15:46;19.23;80.98
68450;SHT30;55434;39.570;2.652;2022-12-20T14:18:23;19.06;80.63
68450;SHT30;55434;39.570;2.652;2022-12-20T15:03:36;18.95;77.70
68450;SHT30;55434;39.570;2.652;2022-12-20T15:06:34;18.97;77.90
68450;SHT30;55434;39.570;2.652;2022-12-20T15:09:02;18.90;78.20
68450;SHT30;55434;39.570;2.652;2022-12-20T15:11:30;18.90;78.28
68450;SHT30;55434;39.570;2.652;2022-12-20T15:17:10;18.90;77.99
68450;SHT30;55434;39.570;2.652;2022-12-20T15:19:37;18.83;78.09
68450;SHT30;55434;39.570;2.652;2022-12-20T15:22:03;18.73;77.55
68450;SHT30;55434;39.570;2.652;2022-12-20T15:24:29;18.73;74.98
68450;SHT30;55434;39.570;2.652;2022-12-20T15:29:58;18.69;72.15
68450;SHT30;55434;39.570;2.652;2022-12-20T15:32:32;18.60;71.64
68450;SHT30;55434;39.570;2.652;2022-12-20T15:35:16;18.53;72.28
68450;SHT30;55434;39.570;2.652;2022-12-20T15:37:50;18.34;73.81
68450;SHT30;55434;39.570;2.652;2022-12-20T15:40:20;18.15;74.07
68450;SHT30;55434;39.570;2.652;2022-12-20T15:43:12;18.04;74.54
68450;SHT30;55434;39.570;2.652;2022-12-20T15:46:06;18.01;74.44
68450;SHT30;55434;39.570;2.652;2022-12-20T15:48:41;17.90;75.10
68450;SHT30;55434;39.570;2.652;2022-12-20T15:51:25;17.75;75.73
68450;SHT30;55434;39.570;2.652;2022-12-20T15:54:03;17.63;75.70
68450;SHT30;55434;39.570;2.652;2022-12-20T15:56:45;17.53;76.24
68450;SHT30;55434;39.570;2.652;2022-12-20T15:59:17;17.50;76.76
68450;SHT30;55434;39.570;2.652;2022-12-20T16:01:59;17.47;77.26
68450;SHT30;55434;39.570;2.652;2022-12-20T16:04:28;17.34;77.79
68450;SHT30;55434;39.570;2.652;2022-12-20T16:07:37;17.12;79.56
68450;SHT30;55434;39.570;2.652;2022-12-20T16:10:28;16.99;80.47
68450;SHT30;55434;39.570;2.652;2022-12-20T16:12:55;16.93;81.17
68450;SHT30;55434;39.570;2.652;2022-12-20T16:15:33;16.83;81.81
68450;SHT30;55434;39.570;2.652;2022-12-20T16:17:59;16.79;82.46
68450;SHT30;55434;39.570;2.652;2022-12-20T16:20:27;16.69;83.00
68450;SHT30;55434;39.570;2.652;2022-12-20T16:23:02;16.68;83.38
68450;SHT30;55434;39.570;2.652;2022-12-20T16:25:32;16.67;83.67
68450;SHT30;55434;39.570;2.652;2022-12-20T16:27:58;16.71;84.05
68450;SHT30;55434;39.570;2.652;2022-12-20T16:30:28;16.69;84.17
68450;SHT30;55434;39.570;2.652;2022-12-20T16:32:54;16.68;84.25
68450;SHT30;55434;39.570;2.652;2022-12-20T16:35:33;16.62;84.72
68450;SHT30;55434;39.570;2.652;2022-12-20T16:38:13;16.57;84.90
68450;SHT30;55434;39.570;2.652;2022-12-20T16:40:39;16.52;85.27
68450;SHT30;55434;39.570;2.652;2022-12-20T16:43:15;16.45;85.84
68450;SHT30;55434;39.570;2.652;2022-12-20T16:45:46;16.45;86.02
68450;SHT30;55434;39.570;2.652;2022-12-20T16:48:19;16.42;85.92
68450;SHT30;55434;39.570;2.652;2022-12-20T16:51:39;16.31;85.63
68450;SHT30;55434;39.570;2.652;2022-12-20T16:54:19;16.27;85.95
68450;SHT30;55434;39.570;2.652;2022-12-20T16:56:51;16.25;86.38
68450;SHT30;55434;39.570;2.652;2022-12-20T16:59:31;16.21;86.54
68450;SHT30;55434;39.570;2.652;2022-12-20T17:01:57;16.22;86.42
68450;SHT30;55434;39.570;2.652;2022-12-20T17:04:29;16.17;86.62
68450;SHT30;55434;39.570;2.652;2022-12-20T17:07:12;16.14;86.83
68450;SHT30;55434;39.570;2.652;2022-12-20T17:09:55;16.09;87.01
68450;SHT30;55434;39.570;2.652;2022-12-20T17:12:23;16.04;87.40
68450;SHT30;55434;39.570;2.652;2022-12-20T17:14:52;16.01;87.48
68450;SHT30;55434;39.570;2.652;2022-12-20T17:17:20;16.10;87.45
68450;SHT30;55434;39.570;2.652;2022-12-20T17:19:48;16.11;87.40
68450;SHT30;55434;39.570;2.652;2022-12-20T17:22:17;16.16;87.03
68450;SHT30;55434;39.570;2.652;2022-12-20T17:24:55;16.14;86.31
68450;SHT30;55434;39.570;2.652;2022-12-20T17:27:27;16.16;86.73
68450;SHT30;55434;39.570;2.652;2022-12-20T17:30:00;16.18;86.48
68450;SHT30;55434;39.570;2.652;2022-12-20T17:32:27;16.22;86.31
68450;SHT30;55434;39.570;2.652;2022-12-20T17:34:54;16.22;86.28
68450;SHT30;55434;39.570;2.652;2022-12-20T17:37:20;16.22;86.42
68450;SHT30;55434;39.570;2.652;2022-12-20T17:39:48;16.21;86.22
68450;SHT30;55434;39.570;2.652;2022-12-20T17:42:15;16.22;86.06
68450;SHT30;55434;39.570;2.652;2022-12-20T17:44:41;16.24;85.55
68450;SHT30;55434;39.570;2.652;2022-12-20T17:47:10;16.25;85.62
68450;SHT30;55434;39.570;2.652;2022-12-20T17:49:36;16.28;85.44
68450;SHT30;55434;39.570;2.652;2022-12-20T17:52:02;16.22;84.68
68450;SHT30;55434;39.570;2.652;2022-12-20T17:54:31;16.25;84.84
68450;SHT30;55434;39.570;2.652;2022-12-20T17:56:58;16.27;84.14
68450;SHT30;55434;39.570;2.652;2022-12-20T17:59:24;16.28;84.07
68450;SHT30;55434;39.570;2.652;2022-12-20T18:01:51;16.32;84.50
68450;SHT30;55434;39.570;2.652;2022-12-20T18:04:17;16.34;84.91
68450;SHT30;55434;39.570;2.652;2022-12-20T18:06:44;16.31;85.28
68450;SHT30;55434;39.570;2.652;2022-12-20T18:09:18;16.32;85.59
68450;SHT30;55434;39.570;2.652;2022-12-20T18:11:46;16.37;85.62
68450;SHT30;55434;39.570;2.652;2022-12-20T18:14:12;16.32;85.26
68450;SHT30;55434;39.570;2.652;2022-12-20T18:16:39;16.35;84.93
68450;SHT30;55434;39.570;2.652;2022-12-20T18:19:07;16.34;84.29
68450;SHT30;55434;39.570;2.652;2022-12-20T18:21:34;16.31;84.41
68450;SHT30;55434;39.570;2.652;2022-12-20T18:24:00;16.32;84.69
68450;SHT30;55434;39.570;2.652;2022-12-20T18:26:28;16.31;84.28
68450;SHT30;55434;39.570;2.652;2022-12-20T18:28:59;16.31;84.32
68450;SHT30;55434;39.570;2.652;2022-12-20T18:31:28;16.31;84.66
68450;SHT30;55434;39.570;2.652;2022-12-20T18:34:16;16.35;84.66
68450;SHT30;55434;39.570;2.652;2022-12-20T18:36:42;16.34;85.03
68450;SHT30;55434;39.570;2.652;2022-12-20T18:39:11;16.35;84.95